createdAt,value
2023-01-28T00:00:44.123Z,20.80
2023-01-28T00:04:01.269Z,21.90
2023-01-28T00:07:05.348Z,21.50
2023-01-28T00:10:10.271Z,21.00
2023-01-28T00:13:18.098Z,22.00
2023-01-28T00:16:22.808Z,19.90
2023-01-28T00:22:31.985Z,16.00
2023-01-28T00:25:35.898Z,17.50
2023-01-28T00:28:40.945Z,18.80
2023-01-28T00:31:45.028Z,13.30
2023-01-28T00:34:50.225Z,18.40
2023-01-28T00:37:54.128Z,20.30
2023-01-28T00:41:11.055Z,19.90
2023-01-28T00:44:15.074Z,19.80
2023-01-28T00:47:19.007Z,19.50
2023-01-28T00:50:23.006Z,19.90
2023-01-28T00:53:27.030Z,20.80
2023-01-28T00:56:31.849Z,18.60
2023-01-28T00:59:36.273Z,19.30
2023-01-28T01:02:42.482Z,17.70
2023-01-28T01:05:47.081Z,17.70
2023-01-28T01:08:51.702Z,17.60
2023-01-28T01:11:55.720Z,17.90
2023-01-28T01:14:59.735Z,19.40
2023-01-28T01:18:04.060Z,19.30
2023-01-28T01:21:12.177Z,19.20
2023-01-28T01:24:16.333Z,19.50
2023-01-28T01:27:21.016Z,18.00
2023-01-28T01:30:25.759Z,18.20
2023-01-28T01:36:35.424Z,16.10
2023-01-28T01:39:39.364Z,16.80
2023-01-28T01:42:43.357Z,17.90
2023-01-28T01:45:51.961Z,19.70
2023-01-28T01:48:58.094Z,17.00
2023-01-28T01:52:11.168Z,20.00
2023-01-28T01:55:21.231Z,18.80
2023-01-28T01:58:30.361Z,19.20
2023-01-28T02:01:34.891Z,17.20
2023-01-28T02:04:41.891Z,19.40
2023-01-28T02:07:48.243Z,18.90
2023-01-28T02:11:01.495Z,18.30
2023-01-28T02:14:06.675Z,17.20
2023-01-28T02:17:10.997Z,19.70
2023-01-28T02:20:22.337Z,21.60
2023-01-28T02:23:35.973Z,22.00
2023-01-28T02:27:07.427Z,19.40
2023-01-28T02:30:21.472Z,21.10
2023-01-28T02:33:39.586Z,17.50
2023-01-28T02:36:54.110Z,17.40
2023-01-28T02:40:02.881Z,14.60
2023-01-28T02:43:07.008Z,18.10
2023-01-28T02:46:33.114Z,18.10
2023-01-28T02:49:44.890Z,13.50
2023-01-28T02:53:31.275Z,15.10
2023-01-28T02:56:41.435Z,19.00
2023-01-28T02:59:50.749Z,17.40
2023-01-28T03:03:01.168Z,18.20
2023-01-28T03:06:12.474Z,17.60
2023-01-28T03:09:22.545Z,18.40
2023-01-28T03:12:47.804Z,17.20
2023-01-28T03:16:10.621Z,16.60
2023-01-28T03:19:33.388Z,14.20
2023-01-28T03:22:59.446Z,17.00
2023-01-28T03:26:25.988Z,15.50
2023-01-28T03:29:52.023Z,11.40
2023-01-28T03:33:17.951Z,18.80
2023-01-28T03:36:41.116Z,16.60
2023-01-28T03:39:46.383Z,19.00
2023-01-28T03:42:52.333Z,18.30
2023-01-28T03:46:06.581Z,17.00
2023-01-28T03:49:11.103Z,17.40
2023-01-28T03:52:18.790Z,14.80
2023-01-28T03:55:25.920Z,15.40
2023-01-28T03:58:48.854Z,17.80
2023-01-28T04:01:52.936Z,17.60
2023-01-28T04:04:59.138Z,18.90
2023-01-28T04:08:03.463Z,18.50
2023-01-28T04:11:20.365Z,16.50
2023-01-28T04:14:25.509Z,17.00
2023-01-28T04:17:49.918Z,16.90
2023-01-28T04:21:01.574Z,18.60
2023-01-28T04:24:07.184Z,17.60
2023-01-28T04:27:11.386Z,14.60
2023-01-28T04:30:16.396Z,12.90
2023-01-28T04:33:40.612Z,14.20
2023-01-28T04:37:03.571Z,14.00
2023-01-28T04:40:19.947Z,19.00
2023-01-28T04:43:35.668Z,15.80
2023-01-28T04:47:07.472Z,15.90
2023-01-28T04:50:19.342Z,17.80
2023-01-28T04:53:41.988Z,16.90
2023-01-28T04:57:01.372Z,15.50
2023-01-28T05:00:06.602Z,14.20
2023-01-28T05:03:10.623Z,10.90
2023-01-28T05:06:14.644Z,12.40
2023-01-28T05:09:23.299Z,14.70
2023-01-28T05:12:28.613Z,15.70
2023-01-28T05:15:33.955Z,14.30
2023-01-28T05:18:38.003Z,14.00
2023-01-28T05:21:46.486Z,14.50
2023-01-28T05:25:14.024Z,13.70
2023-01-28T05:28:18.286Z,14.80
2023-01-28T05:31:22.305Z,13.20
2023-01-28T05:34:27.035Z,10.20
2023-01-28T05:37:32.369Z,13.40
2023-01-28T05:40:36.399Z,9.20
2023-01-28T05:43:40.407Z,11.00
2023-01-28T05:47:06.954Z,12.90
2023-01-28T05:50:36.980Z,13.30
2023-01-28T05:53:54.619Z,12.10
2023-01-28T05:56:59.723Z,11.90
2023-01-28T06:00:07.199Z,11.50
2023-01-28T06:03:18.648Z,11.70
2023-01-28T06:06:23.178Z,6.10
2023-01-28T06:09:27.291Z,10.80
2023-01-28T06:12:31.433Z,11.10
2023-01-28T06:16:05.052Z,10.60
2023-01-28T06:19:20.999Z,11.90
2023-01-28T06:22:24.997Z,11.60
2023-01-28T06:25:28.925Z,9.70
2023-01-28T06:28:37.281Z,9.50
2023-01-28T06:31:41.282Z,11.00
2023-01-28T06:34:45.492Z,10.50
2023-01-28T06:37:49.497Z,10.20
2023-01-28T06:40:55.913Z,9.80
2023-01-28T06:44:00.071Z,10.10
2023-01-28T06:47:04.112Z,10.20
2023-01-28T06:50:09.070Z,8.70
2023-01-28T06:53:13.006Z,12.30
2023-01-28T06:56:16.984Z,10.00
2023-01-28T06:59:20.952Z,11.00
2023-01-28T07:02:27.545Z,10.90
2023-01-28T07:05:31.782Z,11.30
2023-01-28T07:08:37.775Z,10.70
2023-01-28T07:11:41.783Z,10.00
2023-01-28T07:14:45.685Z,9.60
2023-01-28T07:17:49.623Z,9.40
2023-01-28T07:20:53.721Z,9.40
2023-01-28T07:23:58.094Z,10.60
2023-01-28T07:27:04.717Z,9.30
2023-01-28T07:30:09.817Z,10.20
2023-01-28T07:33:13.725Z,10.90
2023-01-28T07:36:17.768Z,10.70
2023-01-28T07:39:21.806Z,9.40
2023-01-28T07:42:25.930Z,10.80
2023-01-28T07:45:32.077Z,11.10
2023-01-28T07:48:36.413Z,8.90
2023-01-28T07:51:40.830Z,11.60
2023-01-28T07:54:44.854Z,10.00
2023-01-28T07:57:54.048Z,10.60
2023-01-28T08:00:59.283Z,10.60
2023-01-28T08:04:03.368Z,8.10
2023-01-28T08:07:08.284Z,11.50
2023-01-28T08:10:13.755Z,10.40
2023-01-28T08:13:18.778Z,9.10
2023-01-28T08:19:26.811Z,10.70
2023-01-28T08:22:30.825Z,10.20
2023-01-28T08:25:36.022Z,9.50
2023-01-28T08:28:40.085Z,11.80
2023-01-28T08:31:44.058Z,10.90
2023-01-28T08:34:48.117Z,11.00
2023-01-28T08:37:52.133Z,9.60
2023-01-28T08:40:57.942Z,11.00
2023-01-28T08:44:02.005Z,11.20
2023-01-28T08:47:06.021Z,12.60
2023-01-28T08:50:10.941Z,15.60
2023-01-28T08:53:18.945Z,20.50
2023-01-28T08:56:22.841Z,25.60
2023-01-28T08:59:26.717Z,16.20
2023-01-28T09:02:32.103Z,11.90
2023-01-28T09:05:37.905Z,9.50
2023-01-28T09:08:42.020Z,10.00
2023-01-28T09:11:46.035Z,10.50
2023-01-28T09:14:50.051Z,9.70
2023-01-28T09:17:59.081Z,10.20
2023-01-28T09:21:06.010Z,8.70
2023-01-28T09:24:12.860Z,9.90
2023-01-28T09:27:17.370Z,9.60
2023-01-28T09:30:22.093Z,12.70
2023-01-28T09:33:26.120Z,10.50
2023-01-28T09:36:30.125Z,10.20
2023-01-28T09:39:34.166Z,13.60
2023-01-28T09:42:59.462Z,11.00
2023-01-28T09:46:06.359Z,11.10
2023-01-28T09:49:29.486Z,8.00
2023-01-28T09:52:42.052Z,11.80
2023-01-28T09:55:51.193Z,15.70
2023-01-28T09:58:57.026Z,11.30
2023-01-28T10:02:35.144Z,22.20
2023-01-28T10:06:07.424Z,11.60
2023-01-28T10:09:48.823Z,19.00
2023-01-28T10:13:24.145Z,22.50
2023-01-28T10:16:49.625Z,13.80
2023-01-28T10:19:58.849Z,16.20
2023-01-28T10:23:23.929Z,13.40
2023-01-28T10:26:41.016Z,12.40
2023-01-28T10:29:47.714Z,12.40
2023-01-28T10:33:04.448Z,9.10
2023-01-28T10:36:09.966Z,10.20
2023-01-28T10:39:16.970Z,7.10
2023-01-28T10:42:32.291Z,9.10
2023-01-28T10:45:43.614Z,13.90
2023-01-28T10:49:04.423Z,11.90
2023-01-28T10:52:16.286Z,11.20
2023-01-28T10:55:21.302Z,17.40
2023-01-28T10:58:28.184Z,11.50
2023-01-28T11:01:39.670Z,11.00
2023-01-28T11:04:43.688Z,10.10
2023-01-28T11:07:50.220Z,12.70
2023-01-28T11:10:56.222Z,9.10
2023-01-28T11:14:01.476Z,12.30
2023-01-28T11:17:13.099Z,14.70
2023-01-28T11:20:24.500Z,17.40
2023-01-28T11:23:36.042Z,11.40
2023-01-28T11:26:45.898Z,11.00
2023-01-28T11:29:57.277Z,9.00
2023-01-28T11:33:30.478Z,9.20
2023-01-28T11:36:35.542Z,15.60
2023-01-28T11:39:39.542Z,15.90
2023-01-28T11:42:43.554Z,18.80
2023-01-28T11:46:06.932Z,12.50
2023-01-28T11:49:39.309Z,11.10
2023-01-28T11:53:06.756Z,10.20
2023-01-28T11:56:43.181Z,11.20
2023-01-28T11:59:58.055Z,6.50
2023-01-28T12:03:14.935Z,8.90
2023-01-28T12:06:40.377Z,4.70
2023-01-28T12:10:20.582Z,10.40
2023-01-28T12:16:37.665Z,9.20
2023-01-28T12:20:20.174Z,11.40
2023-01-28T12:23:48.390Z,11.60
2023-01-28T12:27:01.613Z,12.90
2023-01-28T12:30:29.401Z,11.70
2023-01-28T12:33:57.741Z,12.90
2023-01-28T12:37:21.124Z,9.50
2023-01-28T12:40:48.997Z,13.80
2023-01-28T12:44:07.558Z,16.00
2023-01-28T12:47:20.156Z,11.50
2023-01-28T12:50:31.330Z,11.50
2023-01-28T12:53:43.578Z,9.30
2023-01-28T12:56:54.014Z,10.20
2023-01-28T13:03:29.551Z,9.00
2023-01-28T13:06:41.575Z,10.90
2023-01-28T13:10:03.240Z,14.20
2023-01-28T13:13:08.086Z,12.60
2023-01-28T13:16:13.319Z,14.00
2023-01-28T13:19:20.037Z,9.60
2023-01-28T13:22:36.515Z,13.50
2023-01-28T13:28:53.835Z,14.70
2023-01-28T13:32:04.713Z,9.30
2023-01-28T13:35:31.077Z,8.60
2023-01-28T13:38:36.175Z,11.80
2023-01-28T13:41:54.045Z,10.10
2023-01-28T13:45:17.097Z,13.10
2023-01-28T13:48:27.309Z,9.30
2023-01-28T13:51:37.830Z,9.80
2023-01-28T13:54:48.912Z,11.80
2023-01-28T13:58:05.099Z,10.10
2023-01-28T14:01:37.300Z,10.30
2023-01-28T14:05:18.737Z,10.00
2023-01-28T14:08:30.190Z,10.50
2023-01-28T14:11:59.397Z,9.70
2023-01-28T14:15:19.899Z,11.80
2023-01-28T14:18:32.041Z,12.80
2023-01-28T14:21:36.201Z,11.30
2023-01-28T14:24:40.657Z,12.20
2023-01-28T14:27:49.506Z,12.30
2023-01-28T14:31:06.373Z,12.20
2023-01-28T14:34:33.223Z,13.00
2023-01-28T14:37:38.551Z,11.40
2023-01-28T14:40:43.327Z,10.10
2023-01-28T14:47:06.207Z,11.00
2023-01-28T14:50:24.872Z,9.10
2023-01-28T14:54:06.359Z,11.10
2023-01-28T14:57:17.030Z,11.80
2023-01-28T15:00:25.952Z,13.30
2023-01-28T15:03:31.082Z,11.00
2023-01-28T15:06:35.960Z,10.50
2023-01-28T15:12:52.282Z,12.60
2023-01-28T15:15:58.227Z,8.70
2023-01-28T15:19:02.559Z,12.10
2023-01-28T15:22:08.057Z,8.70
2023-01-28T15:25:24.308Z,9.30
2023-01-28T15:28:31.492Z,8.00
2023-01-28T15:31:39.299Z,7.40
2023-01-28T15:34:46.176Z,8.40
2023-01-28T15:37:50.205Z,8.00
2023-01-28T15:41:00.082Z,9.00
2023-01-28T15:44:04.785Z,9.50
2023-01-28T15:47:21.845Z,7.30
2023-01-28T15:50:26.227Z,6.20
2023-01-28T15:53:52.156Z,5.50
2023-01-28T15:56:56.980Z,4.80
2023-01-28T16:00:07.027Z,6.00
2023-01-28T16:03:21.470Z,6.80
2023-01-28T16:06:32.667Z,6.10
2023-01-28T16:09:37.082Z,6.40
2023-01-28T16:12:41.326Z,10.00
2023-01-28T16:15:48.299Z,10.60
2023-01-28T16:18:56.147Z,9.70
2023-01-28T16:22:00.771Z,10.10
2023-01-28T16:25:24.751Z,5.40
2023-01-28T16:28:32.672Z,7.40
2023-01-28T16:31:36.890Z,7.10
2023-01-28T16:34:42.424Z,7.20
2023-01-28T16:37:47.763Z,6.40
2023-01-28T16:40:51.784Z,6.20
2023-01-28T16:43:55.691Z,5.40
2023-01-28T16:46:59.773Z,4.30
2023-01-28T16:50:03.935Z,3.50
2023-01-28T16:53:20.950Z,4.40
2023-01-28T16:56:44.439Z,4.90
2023-01-28T16:59:49.573Z,5.10
2023-01-28T17:02:54.721Z,3.90
2023-01-28T17:05:59.032Z,4.50
2023-01-28T17:09:03.527Z,4.60
2023-01-28T17:12:07.779Z,5.90
2023-01-28T17:15:11.806Z,5.00
2023-01-28T17:18:16.225Z,4.50
2023-01-28T17:21:21.050Z,4.50
2023-01-28T17:24:25.232Z,4.20
2023-01-28T17:27:29.278Z,6.50
2023-01-28T17:30:33.819Z,6.60
2023-01-28T17:33:38.455Z,6.60
2023-01-28T17:36:42.467Z,8.00
2023-01-28T17:39:46.483Z,6.90
2023-01-28T17:42:50.500Z,7.10
2023-01-28T17:45:54.644Z,7.70
2023-01-28T17:48:58.596Z,9.10
2023-01-28T17:52:02.568Z,9.80
2023-01-28T17:55:08.184Z,8.00
2023-01-28T17:58:12.215Z,10.30
2023-01-28T18:01:16.367Z,6.20
2023-01-28T18:04:20.392Z,7.80
2023-01-28T18:07:24.364Z,7.30
2023-01-28T18:10:28.307Z,7.80
2023-01-28T18:13:32.368Z,6.90
2023-01-28T18:16:36.529Z,5.20
2023-01-28T18:19:40.640Z,6.10
2023-01-28T18:22:45.029Z,3.80
2023-01-28T18:25:48.935Z,2.90
2023-01-28T18:28:53.176Z,3.80
2023-01-28T18:31:58.763Z,3.10
2023-01-28T18:35:02.707Z,3.50
2023-01-28T18:38:06.612Z,3.40
2023-01-28T18:41:10.594Z,3.10
2023-01-28T18:44:15.843Z,1.70
2023-01-28T18:47:19.755Z,4.30
2023-01-28T18:50:23.758Z,4.60
2023-01-28T18:53:31.117Z,4.20
2023-01-28T18:56:35.068Z,4.20
2023-01-28T18:59:38.961Z,4.30
2023-01-28T19:02:42.869Z,4.30
2023-01-28T19:05:47.038Z,6.40
2023-01-28T19:08:59.313Z,5.30
2023-01-28T19:12:03.442Z,4.10
2023-01-28T19:15:08.334Z,5.50
2023-01-28T19:18:12.294Z,5.40
2023-01-28T19:21:16.187Z,4.70
2023-01-28T19:24:20.429Z,4.50
2023-01-28T19:27:24.644Z,5.10
2023-01-28T19:30:28.692Z,4.40
2023-01-28T19:33:33.098Z,4.70
2023-01-28T19:36:37.719Z,5.30
2023-01-28T19:39:41.835Z,3.50
2023-01-28T19:42:46.137Z,4.90
2023-01-28T19:46:01.505Z,3.80
2023-01-28T19:49:06.561Z,3.90
2023-01-28T19:52:10.981Z,4.30
2023-01-28T19:55:15.277Z,2.60
2023-01-28T19:58:19.442Z,2.60
2023-01-28T20:01:28.566Z,4.80
2023-01-28T20:04:33.930Z,5.80
2023-01-28T20:07:37.824Z,5.50
2023-01-28T20:10:41.722Z,4.60
2023-01-28T20:13:47.183Z,4.20
2023-01-28T20:16:51.218Z,3.90
2023-01-28T20:19:55.134Z,5.40
2023-01-28T20:22:59.105Z,4.50
2023-01-28T20:26:03.292Z,4.50
2023-01-28T20:29:09.965Z,5.30
2023-01-28T20:32:19.128Z,3.30
2023-01-28T20:35:24.226Z,4.70
2023-01-28T20:38:28.238Z,4.40
2023-01-28T20:41:32.254Z,4.80
2023-01-28T20:44:36.387Z,4.20
2023-01-28T20:47:40.386Z,4.90
2023-01-28T20:50:44.308Z,5.30
2023-01-28T20:53:48.925Z,5.40
2023-01-28T20:59:57.375Z,4.20
2023-01-28T21:03:01.457Z,4.70
2023-01-28T21:06:06.146Z,5.00
2023-01-28T21:09:10.473Z,5.20
2023-01-28T21:12:14.466Z,4.50
2023-01-28T21:15:18.374Z,4.80
2023-01-28T21:18:23.097Z,3.80
2023-01-28T21:21:28.897Z,4.10
2023-01-28T21:24:33.310Z,6.50
2023-01-28T21:27:37.419Z,5.00
2023-01-28T21:30:42.192Z,5.20
2023-01-28T21:36:54.163Z,6.00
2023-01-28T21:39:58.577Z,4.60
2023-01-28T21:43:03.273Z,5.20
2023-01-28T21:46:07.311Z,5.10
2023-01-28T21:49:11.369Z,5.80
2023-01-28T21:52:15.300Z,6.30
2023-01-28T21:55:20.099Z,4.90
2023-01-28T22:01:47.772Z,5.70
2023-01-28T22:04:51.815Z,5.20
2023-01-28T22:07:55.706Z,4.30
2023-01-28T22:11:04.630Z,4.90
2023-01-28T22:14:09.060Z,3.80
2023-01-28T22:17:13.067Z,4.70
2023-01-28T22:20:17.508Z,5.90
2023-01-28T22:23:21.691Z,5.20
2023-01-28T22:26:25.798Z,4.70
2023-01-28T22:29:29.770Z,5.90
2023-01-28T22:32:33.676Z,4.60
2023-01-28T22:35:37.617Z,4.00
2023-01-28T22:38:43.581Z,4.50
2023-01-28T22:41:48.119Z,5.20
2023-01-28T22:44:52.100Z,4.60
2023-01-28T22:47:56.115Z,4.20
2023-01-28T22:51:16.206Z,5.30
2023-01-28T22:54:20.326Z,4.00
2023-01-28T22:57:24.345Z,4.80
2023-01-28T23:00:28.776Z,4.90
2023-01-28T23:03:33.785Z,4.10
2023-01-28T23:06:38.232Z,4.80
2023-01-28T23:09:44.811Z,5.80
2023-01-28T23:12:53.525Z,3.20
2023-01-28T23:16:16.290Z,7.00
2023-01-28T23:19:38.961Z,6.30
2023-01-28T23:23:02.002Z,5.70
2023-01-28T23:26:07.123Z,6.20
2023-01-28T23:29:11.597Z,6.80
2023-01-28T23:32:15.904Z,6.80
2023-01-28T23:35:20.371Z,5.90
2023-01-28T23:38:24.430Z,6.20
2023-01-28T23:41:28.350Z,6.50
2023-01-28T23:44:32.241Z,5.80
2023-01-28T23:47:37.110Z,6.20
2023-01-28T23:50:41.012Z,6.50
2023-01-28T23:53:45.030Z,6.90
2023-01-28T23:56:49.042Z,6.30
2023-01-28T23:59:53.128Z,4.90
